Time;durP1;ratioP1;P1;durP2;ratioP2;P2;SDS_P1;SDS_P2;PMS_P1;PMS_P2;Temp;Humidity;BMP_temperature;BMP_pressure;BME280_temperature;BME280_humidity;BME280_pressure;Samples;Min_cycle;Max_cycle;Signal;HPM_P1;HPM_P2
2022/07/30 00:01:12;;;;;;;7.50;5.97;;;20.10;99.90;;;;;;5090905;28;20238;-77
2022/07/30 00:03:39;;;;;;;5.53;4.90;;;19.80;99.90;;;;;;5091454;28;20208;-76
2022/07/30 00:06:07;;;;;;;5.78;5.25;;;20.00;99.90;;;;;;5090593;28;20227;-77
2022/07/30 00:08:34;;;;;;;6.75;5.35;;;20.30;99.90;;;;;;5092363;28;20204;-76
2022/07/30 00:11:02;;;;;;;7.63;6.82;;;20.30;99.90;;;;;;5093772;28;20212;-76
2022/07/30 00:13:29;;;;;;;7.47;6.65;;;20.00;99.90;;;;;;5094116;28;20203;-76
2022/07/30 00:15:58;;;;;;;7.25;6.40;;;19.90;99.90;;;;;;5086532;28;20192;-76
2022/07/30 00:18:26;;;;;;;6.72;5.00;;;19.90;99.90;;;;;;5083807;28;20653;-76
2022/07/30 00:20:53;;;;;;;6.63;5.72;;;20.20;99.90;;;;;;5103790;28;20211;-76
2022/07/30 00:23:21;;;;;;;7.32;6.32;;;20.20;99.90;;;;;;5111126;28;20192;-77
2022/07/30 00:25:48;;;;;;;8.45;6.32;;;20.20;99.90;;;;;;5099347;28;20192;-77
2022/07/30 00:28:16;;;;;;;10.68;6.53;;;19.90;99.90;;;;;;5094066;28;20207;-77
2022/07/30 00:30:43;;;;;;;6.95;6.22;;;19.70;99.90;;;;;;5092942;28;20220;-77
2022/07/30 00:33:12;;;;;;;6.68;6.00;;;19.50;99.90;;;;;;5089909;28;20207;-77
2022/07/30 00:35:40;;;;;;;7.18;6.47;;;19.60;99.90;;;;;;5087048;28;20651;-77
2022/07/30 00:38:07;;;;;;;7.22;6.53;;;19.60;99.90;;;;;;5091567;28;20196;-76
2022/07/30 00:40:35;;;;;;;6.78;6.00;;;19.50;99.90;;;;;;5095947;28;20234;-76
2022/07/30 00:43:02;;;;;;;8.20;6.50;;;19.30;99.90;;;;;;5093155;28;20200;-77
2022/07/30 00:45:30;;;;;;;7.43;6.00;;;19.30;99.90;;;;;;5100584;27;20204;-77
2022/07/30 00:48:00;;;;;;;7.15;6.30;;;19.10;99.90;;;;;;5092555;28;20200;-77
2022/07/30 00:50:29;;;;;;;10.43;6.70;;;19.10;99.90;;;;;;5113658;27;20220;-77
2022/07/30 00:52:56;;;;;;;6.88;5.95;;;19.30;99.90;;;;;;5096156;28;20207;-76
2022/07/30 00:55:24;;;;;;;8.15;7.10;;;19.30;99.90;;;;;;5099537;28;20193;-76
2022/07/30 00:57:51;;;;;;;8.07;6.88;;;19.40;99.90;;;;;;5094834;28;20200;-76
2022/07/30 01:00:19;;;;;;;8.05;7.00;;;19.10;99.90;;;;;;5111832;27;20212;-76
2022/07/30 01:02:46;;;;;;;7.78;6.55;;;18.90;99.90;;;;;;5094710;28;20208;-76
2022/07/30 01:05:14;;;;;;;8.07;6.13;;;18.90;99.90;;;;;;5105690;28;20197;-76
2022/07/30 01:07:43;;;;;;;7.15;6.40;;;19.00;99.90;;;;;;5112720;28;20594;-76
2022/07/30 01:10:12;;;;;;;10.07;7.35;;;19.10;99.90;;;;;;5115554;27;20220;-76
2022/07/30 01:12:42;;;;;;;10.60;7.80;;;19.20;99.90;;;;;;5114968;28;20203;-76
2022/07/30 01:15:10;;;;;;;10.35;6.65;;;19.30;99.90;;;;;;5097585;28;20559;-76
2022/07/30 01:17:38;;;;;;;8.00;7.30;;;19.10;99.90;;;;;;5109784;28;20197;-76
2022/07/30 01:20:11;;;;;;;9.48;6.13;;;18.90;99.90;;;;;;5097583;28;20219;-76
2022/07/30 01:22:52;;;;;;;7.85;6.50;;;19.00;99.90;;;;;;5097043;28;20200;-76
2022/07/30 01:25:33;;;;;;;7.75;6.43;;;19.00;99.90;;;;;;5091720;28;20325;-76
2022/07/30 01:28:06;;;;;;;10.70;6.97;;;19.00;99.90;;;;;;5090598;28;20584;-76
2022/07/30 01:30:38;;;;;;;10.45;8.77;;;18.80;99.90;;;;;;5090595;28;20233;-76
2022/07/30 01:33:07;;;;;;;9.55;8.57;;;18.60;99.90;;;;;;5111135;28;20196;-76
2022/07/30 01:35:36;;;;;;;9.43;7.50;;;18.20;99.90;;;;;;5103815;28;20204;-76
2022/07/30 01:38:06;;;;;;;8.60;6.93;;;18.20;99.90;;;;;;5100750;28;20208;-76
2022/07/30 01:40:37;;;;;;;11.05;7.55;;;18.50;99.90;;;;;;5118034;27;20208;-76
2022/07/30 01:43:07;;;;;;;11.02;7.53;;;18.50;99.90;;;;;;5089087;28;20205;-76
2022/07/30 01:45:36;;;;;;;8.23;7.03;;;18.70;99.90;;;;;;5113633;27;20211;-76
2022/07/30 01:48:06;;;;;;;8.35;7.55;;;19.00;99.90;;;;;;5099828;28;20278;-77
2022/07/30 01:50:37;;;;;;;8.15;7.25;;;18.90;99.90;;;;;;5095197;28;20227;-76
2022/07/30 01:53:05;;;;;;;10.50;7.22;;;18.80;99.90;;;;;;5099806;28;20197;-76
2022/07/30 01:55:36;;;;;;;8.73;6.75;;;18.70;99.90;;;;;;5096323;28;20193;-76
2022/07/30 01:58:07;;;;;;;6.95;6.25;;;18.50;99.90;;;;;;5102028;28;20207;-76
2022/07/30 02:00:39;;;;;;;9.55;7.57;;;18.70;99.90;;;;;;5088140;28;20212;-76
2022/07/30 02:03:08;;;;;;;9.25;7.50;;;18.50;99.90;;;;;;5103251;27;20212;-76
2022/07/30 02:05:37;;;;;;;8.63;7.72;;;18.20;99.90;;;;;;5108807;28;20196;-76
2022/07/30 02:08:11;;;;;;;9.15;8.25;;;18.00;99.90;;;;;;5089022;28;20196;-76
2022/07/30 02:10:45;;;;;;;10.13;8.13;;;17.90;99.90;;;;;;5092777;28;20212;-76
2022/07/30 02:13:21;;;;;;;11.63;9.15;;;17.80;99.90;;;;;;5105910;28;20199;-76
2022/07/30 02:15:54;;;;;;;11.02;8.75;;;17.80;99.90;;;;;;5100176;28;20204;-76
2022/07/30 02:18:27;;;;;;;8.43;7.60;;;17.90;99.90;;;;;;5089816;28;20196;-76
2022/07/30 02:21:00;;;;;;;9.07;7.85;;;18.00;99.90;;;;;;5090297;28;20216;-76
2022/07/30 02:23:29;;;;;;;9.63;7.38;;;18.10;99.90;;;;;;5091638;28;20203;-76
2022/07/30 02:26:00;;;;;;;9.88;8.38;;;18.10;99.90;;;;;;5096445;28;20196;-76
2022/07/30 02:28:33;;;;;;;10.02;8.32;;;18.10;99.90;;;;;;5092752;28;20192;-76
2022/07/30 02:31:01;;;;;;;10.52;9.18;;;18.10;99.90;;;;;;5099546;28;20228;-76
2022/07/30 02:33:36;;;;;;;11.32;10.07;;;18.00;99.90;;;;;;5094468;28;20195;-76
2022/07/30 02:36:05;;;;;;;11.27;9.38;;;17.80;99.90;;;;;;5101115;28;20204;-76
2022/07/30 02:38:33;;;;;;;13.68;9.45;;;18.00;99.90;;;;;;5098974;27;20200;-76
2022/07/30 02:41:02;;;;;;;10.38;9.15;;;18.10;99.90;;;;;;5101902;28;20208;-76
2022/07/30 02:43:34;;;;;;;10.20;9.25;;;18.00;99.90;;;;;;5100961;28;20207;-76
2022/07/30 02:46:05;;;;;;;10.18;9.10;;;18.10;99.90;;;;;;5092062;28;20204;-76
2022/07/30 02:48:54;;;;;;;11.98;10.38;;;18.00;99.90;;;;;;5110971;27;20188;-76
2022/07/30 02:51:25;;;;;;;14.38;11.43;;;17.90;99.90;;;;;;5093422;28;20228;-76
2022/07/30 02:53:54;;;;;;;14.93;12.43;;;17.80;99.90;;;;;;5095817;27;20195;-76
2022/07/30 02:56:24;;;;;;;14.35;11.60;;;17.70;99.90;;;;;;5093482;28;20218;-76
2022/07/30 02:58:54;;;;;;;12.43;11.13;;;17.70;99.90;;;;;;5092203;28;20207;-76
2022/07/30 03:01:24;;;;;;;14.25;11.52;;;17.70;99.90;;;;;;5087774;28;20216;-76
2022/07/30 03:03:52;;;;;;;10.40;9.45;;;17.70;99.90;;;;;;5091014;27;20199;-76
2022/07/30 03:06:24;;;;;;;14.05;11.55;;;17.70;99.90;;;;;;5092297;28;20318;-76
2022/07/30 03:08:53;;;;;;;11.57;9.85;;;17.70;99.90;;;;;;5090003;28;20196;-76
2022/07/30 03:11:22;;;;;;;9.05;7.75;;;17.70;99.90;;;;;;5106662;27;20584;-76
2022/07/30 03:13:50;;;;;;;11.30;9.05;;;18.00;99.90;;;;;;5101631;27;20199;-76
2022/07/30 03:16:21;;;;;;;12.50;9.60;;;18.20;99.90;;;;;;5095919;28;20196;-76
2022/07/30 03:18:52;;;;;;;10.63;9.40;;;18.40;99.90;;;;;;5108986;28;20195;-76
2022/07/30 03:21:22;;;;;;;8.75;7.72;;;18.10;99.90;;;;;;5082011;28;20215;-76
2022/07/30 03:23:50;;;;;;;10.95;9.85;;;18.10;99.90;;;;;;5112862;27;20192;-76
2022/07/30 03:26:20;;;;;;;12.30;9.85;;;18.10;99.90;;;;;;5102260;28;20204;-76
2022/07/30 03:28:49;;;;;;;13.77;9.75;;;17.80;99.90;;;;;;5107967;28;20709;-76
2022/07/30 03:31:17;;;;;;;12.35;10.55;;;17.60;99.90;;;;;;5098160;27;20224;-76
2022/07/30 03:33:47;;;;;;;12.02;10.85;;;17.50;99.90;;;;;;5104145;28;20674;-76
2022/07/30 03:36:17;;;;;;;13.38;10.80;;;17.30;99.90;;;;;;5094141;28;20203;-76
2022/07/30 03:38:47;;;;;;;13.88;11.65;;;17.20;99.90;;;;;;5092723;28;20200;-76
2022/07/30 03:41:15;;;;;;;11.40;10.27;;;17.30;99.90;;;;;;5094084;28;20219;-76
2022/07/30 03:43:45;;;;;;;11.82;10.73;;;17.30;99.90;;;;;;5106124;28;20579;-76
2022/07/30 03:46:15;;;;;;;13.85;10.52;;;17.30;99.90;;;;;;5100725;28;20203;-76
2022/07/30 03:48:47;;;;;;;11.63;10.50;;;17.30;99.90;;;;;;5097113;28;20188;-76
2022/07/30 03:51:16;;;;;;;13.65;10.95;;;17.30;99.90;;;;;;5102065;27;20231;-76
2022/07/30 03:53:46;;;;;;;12.27;11.05;;;17.40;99.90;;;;;;5108767;27;20195;-76
2022/07/30 03:56:33;;;;;;;12.68;11.35;;;17.00;99.90;;;;;;5117422;27;20203;-76
2022/07/30 03:59:07;;;;;;;12.07;10.95;;;16.80;99.90;;;;;;5099680;28;20199;-76
2022/07/30 04:01:37;;;;;;;17.48;11.77;;;16.90;99.90;;;;;;5108104;28;20219;-77
2022/07/30 04:04:27;;;;;;;15.18;11.80;;;16.90;99.90;;;;;;5117211;27;20676;-77
2022/07/30 04:06:57;;;;;;;14.77;11.05;;;16.90;99.90;;;;;;5105205;28;20203;-77
2022/07/30 04:09:28;;;;;;;12.68;11.23;;;16.90;99.90;;;;;;5095402;28;20192;-77
2022/07/30 04:11:55;;;;;;;12.52;11.35;;;16.90;99.90;;;;;;5092970;28;20212;-77
2022/07/30 04:14:27;;;;;;;10.65;9.55;;;16.90;99.90;;;;;;5094329;28;20199;-77
2022/07/30 04:17:02;;;;;;;13.40;10.90;;;17.10;99.90;;;;;;5089814;28;20204;-77
2022/07/30 04:19:36;;;;;;;14.25;11.18;;;17.10;99.90;;;;;;5097271;27;20198;-77
2022/07/30 04:22:05;;;;;;;13.35;12.00;;;17.00;99.90;;;;;;5098495;28;20212;-77
2022/07/30 04:24:35;;;;;;;13.75;12.25;;;17.00;99.90;;;;;;5102400;27;20568;-77
2022/07/30 04:27:04;;;;;;;15.05;12.88;;;16.70;99.90;;;;;;5105195;27;20676;-77
2022/07/30 04:29:31;;;;;;;15.05;12.40;;;16.80;99.90;;;;;;5108358;28;20222;-77
2022/07/30 04:31:59;;;;;;;15.52;12.57;;;16.90;99.90;;;;;;5092615;28;20238;-77
2022/07/30 04:34:48;;;;;;;16.40;13.02;;;16.80;99.90;;;;;;5116776;28;20195;-77
2022/07/30 04:37:21;;;;;;;14.48;13.00;;;16.70;99.90;;;;;;5100169;28;20200;-77
2022/07/30 04:39:53;;;;;;;16.00;13.40;;;16.70;99.90;;;;;;5090784;28;20203;-77
2022/07/30 04:42:20;;;;;;;14.82;13.23;;;16.70;99.90;;;;;;5095020;28;20199;-77
2022/07/30 04:44:57;;;;;;;14.30;12.50;;;16.70;99.90;;;;;;5104988;27;20191;-77
2022/07/30 04:47:28;;;;;;;9.27;8.35;;;16.90;99.90;;;;;;5106755;28;20553;-78
2022/07/30 04:50:21;;;;;;;14.25;10.57;;;17.20;99.90;;;;;;5065481;27;20223;-77
2022/07/30 04:53:11;;;;;;;12.52;11.23;;;17.40;99.90;;;;;;5097991;28;20208;-77
2022/07/30 04:55:46;;;;;;;13.73;12.32;;;17.50;99.90;;;;;;5096608;28;20196;-77
2022/07/30 04:58:16;;;;;;;17.38;14.15;;;17.10;99.90;;;;;;5096786;28;20443;-77
2022/07/30 05:00:45;;;;;;;16.63;14.50;;;16.80;99.90;;;;;;5099474;27;20570;-79
2022/07/30 05:03:17;;;;;;;16.35;14.85;;;16.70;99.90;;;;;;5093931;28;20200;-77
2022/07/30 05:05:52;;;;;;;16.92;14.73;;;16.70;99.90;;;;;;5112577;28;20203;-77
2022/07/30 05:08:20;;;;;;;18.48;16.52;;;16.70;99.90;;;;;;5102304;28;20196;-77
2022/07/30 05:10:47;;;;;;;18.75;15.57;;;16.80;99.90;;;;;;5103369;28;20227;-77
2022/07/30 05:13:15;;;;;;;20.40;16.98;;;16.80;99.90;;;;;;5094248;28;20220;-77
2022/07/30 05:15:44;;;;;;;20.38;16.50;;;16.80;99.90;;;;;;5094866;28;20192;-77
2022/07/30 05:18:12;;;;;;;20.95;18.05;;;16.90;99.90;;;;;;5094241;28;20204;-77
2022/07/30 05:20:43;;;;;;;24.83;19.23;;;16.90;99.90;;;;;;5092574;28;20223;-77
2022/07/30 05:23:28;;;;;;;27.10;18.92;;;16.80;99.90;;;;;;5096127;27;20211;-77
2022/07/30 05:26:25;;;;;;;20.90;17.58;;;16.90;99.90;;;;;;5096198;27;20200;-77
2022/07/30 05:28:53;;;;;;;22.92;17.25;;;17.00;99.90;;;;;;5093188;27;20666;-77
2022/07/30 05:31:25;;;;;;;22.77;17.33;;;17.10;99.90;;;;;;5090311;27;20626;-77
2022/07/30 05:34:00;;;;;;;20.75;15.98;;;17.40;99.90;;;;;;5092627;27;20195;-77
2022/07/30 05:36:34;;;;;;;27.27;21.58;;;17.90;99.90;;;;;;5104395;28;20202;-77
2022/07/30 05:39:04;;;;;;;21.35;15.50;;;17.30;99.90;;;;;;5096700;27;20207;-77
2022/07/30 05:41:37;;;;;;;22.77;16.25;;;17.50;99.90;;;;;;5090232;27;20224;-77
2022/07/30 05:44:09;;;;;;;20.40;14.90;;;17.90;99.90;;;;;;5094456;28;20197;-77
2022/07/30 05:46:36;;;;;;;27.30;18.73;;;18.40;99.90;;;;;;5101981;27;20207;-77
2022/07/30 05:49:05;;;;;;;30.60;20.15;;;18.50;99.90;;;;;;5098406;28;20211;-78
2022/07/30 05:51:33;;;;;;;26.63;19.88;;;18.20;99.90;;;;;;5111663;27;20220;-77
2022/07/30 05:54:00;;;;;;;28.00;20.10;;;18.30;99.90;;;;;;5090078;28;20267;-77
2022/07/30 05:56:43;;;;;;;34.90;24.38;;;18.60;99.90;;;;;;5092595;27;20215;-78
2022/07/30 05:59:20;;;;;;;27.90;21.98;;;18.50;99.90;;;;;;5089863;28;20192;-78
2022/07/30 06:02:05;;;;;;;40.22;28.42;;;18.70;99.90;;;;;;5110503;28;20196;-77
2022/07/30 06:04:56;;;;;;;37.05;26.27;;;18.80;99.90;;;;;;5099927;28;20196;-77
2022/07/30 06:07:24;;;;;;;57.60;38.67;;;19.00;99.90;;;;;;5106106;27;20196;-78
2022/07/30 06:09:58;;;;;;;63.45;39.83;;;18.40;99.90;;;;;;5101320;27;20196;-77
2022/07/30 06:12:29;;;;;;;58.08;39.65;;;18.10;99.90;;;;;;5092982;27;20219;-78
2022/07/30 06:14:57;;;;;;;54.90;38.67;;;18.00;99.90;;;;;;5095731;28;20198;-78
2022/07/30 06:17:41;;;;;;;54.40;37.90;;;18.30;99.90;;;;;;5091698;28;20577;-78
2022/07/30 06:20:13;;;;;;;60.05;42.05;;;18.40;99.90;;;;;;5108873;27;20230;-78
2022/07/30 06:22:52;;;;;;;58.97;41.97;;;18.50;99.90;;;;;;5092622;27;20546;-78
2022/07/30 06:25:26;;;;;;;64.22;41.35;;;18.50;99.90;;;;;;5091061;27;20859;-78
2022/07/30 06:27:55;;;;;;;57.03;39.42;;;18.40;99.90;;;;;;5084868;28;20193;-78
2022/07/30 06:30:24;;;;;;;59.33;38.75;;;18.40;99.90;;;;;;5098026;28;20213;-78
2022/07/30 06:32:51;;;;;;;53.80;36.22;;;18.40;99.90;;;;;;5096155;28;20208;-78
2022/07/30 06:35:21;;;;;;;53.95;36.47;;;18.40;99.90;;;;;;5088546;28;20196;-78
2022/07/30 06:37:48;;;;;;;62.35;40.80;;;18.60;99.90;;;;;;5094502;27;20200;-78
2022/07/30 06:40:16;;;;;;;60.42;39.70;;;18.30;99.90;;;;;;5085837;27;20223;-78
2022/07/30 06:43:08;;;;;;;60.40;39.42;;;18.20;99.90;;;;;;5091277;27;20219;-80
2022/07/30 06:45:47;;;;;;;65.45;42.33;;;18.40;99.90;;;;;;5085017;28;20196;-78
2022/07/30 06:48:21;;;;;;;61.90;39.30;;;18.00;99.90;;;;;;5101605;27;20188;-79
2022/07/30 06:50:49;;;;;;;62.25;40.05;;;18.00;99.90;;;;;;5088247;28;20220;-78
2022/07/30 06:53:16;;;;;;;65.70;40.42;;;17.80;99.90;;;;;;5081047;28;20205;-78
2022/07/30 06:56:03;;;;;;;65.65;41.17;;;17.80;99.90;;;;;;5114487;28;20195;-78
2022/07/30 06:58:41;;;;;;;60.38;39.88;;;18.00;99.90;;;;;;5095707;28;20192;-78
2022/07/30 07:01:34;;;;;;;62.97;40.97;;;18.00;99.90;;;;;;5114664;28;20245;-78
2022/07/30 07:04:03;;;;;;;66.88;41.67;;;17.80;99.90;;;;;;5095972;27;20192;-78
2022/07/30 07:06:39;;;;;;;60.58;41.97;;;17.80;99.90;;;;;;5115249;27;20565;-79
2022/07/30 07:09:08;;;;;;;63.22;42.17;;;17.80;99.90;;;;;;5102866;28;20192;-78
2022/07/30 07:11:43;;;;;;;57.45;40.63;;;17.80;99.90;;;;;;5100205;28;20704;-78
2022/07/30 07:14:19;;;;;;;61.90;40.90;;;18.00;99.90;;;;;;5094082;28;20230;-78
2022/07/30 07:16:48;;;;;;;59.83;41.72;;;18.00;99.90;;;;;;5095240;28;20204;-78
2022/07/30 07:19:42;;;;;;;60.35;40.55;;;18.10;99.90;;;;;;5089003;28;20677;-78
2022/07/30 07:22:09;;;;;;;67.90;45.70;;;18.10;99.90;;;;;;5077796;28;20554;-79
2022/07/30 07:24:37;;;;;;;68.78;43.80;;;18.10;99.90;;;;;;5095127;28;20274;-78
2022/07/30 07:27:12;;;;;;;68.95;46.13;;;18.20;99.90;;;;;;5108386;28;20195;-78
2022/07/30 07:29:43;;;;;;;60.25;44.80;;;18.10;99.90;;;;;;5097775;28;20188;-78
2022/07/30 07:32:11;;;;;;;61.20;43.88;;;18.10;99.90;;;;;;5111314;28;20188;-79
2022/07/30 07:34:40;;;;;;;62.42;44.90;;;18.30;99.90;;;;;;5115149;27;20189;-78
2022/07/30 07:37:11;;;;;;;60.25;42.33;;;18.30;99.90;;;;;;5094497;28;20204;-79
2022/07/30 07:39:39;;;;;;;58.20;42.90;;;18.20;99.90;;;;;;5094745;28;20685;-78
2022/07/30 07:42:07;;;;;;;55.67;41.78;;;18.00;99.90;;;;;;5085559;28;20197;-79
2022/07/30 07:44:35;;;;;;;55.53;41.53;;;18.10;99.90;;;;;;5105413;27;20197;-78
2022/07/30 07:47:05;;;;;;;54.58;40.33;;;18.00;99.90;;;;;;5103648;28;20669;-80
2022/07/30 07:49:56;;;;;;;49.85;39.33;;;17.90;99.90;;;;;;5095746;28;20207;-80
2022/07/30 07:52:24;;;;;;;53.03;39.97;;;17.80;99.90;;;;;;5083585;28;20204;-80
2022/07/30 07:54:51;;;;;;;53.45;39.90;;;17.90;99.90;;;;;;5091415;28;20203;-80
2022/07/30 07:57:19;;;;;;;54.35;42.00;;;18.10;99.90;;;;;;5104370;28;20207;-80
2022/07/30 07:59:46;;;;;;;52.35;40.58;;;18.20;99.90;;;;;;5108819;28;20207;-80
2022/07/30 08:02:20;;;;;;;49.95;38.40;;;18.30;99.90;;;;;;5089942;28;20201;-80
2022/07/30 08:05:13;;;;;;;51.67;40.20;;;18.20;99.90;;;;;;5095810;27;20560;-78
2022/07/30 08:07:46;;;;;;;44.65;36.40;;;18.20;99.90;;;;;;5087237;28;20541;-78
2022/07/30 08:10:37;;;;;;;48.17;37.97;;;18.20;99.90;;;;;;5039430;28;20595;-78
2022/07/30 08:13:23;;;;;;;47.22;37.83;;;18.20;99.90;;;;;;5092018;28;20570;-78
2022/07/30 08:16:23;;;;;;;48.33;37.72;;;18.40;99.90;;;;;;5087714;28;20193;-78
2022/07/30 08:19:08;;;;;;;45.22;35.35;;;18.20;99.90;;;;;;5093595;28;20204;-78
2022/07/30 08:21:42;;;;;;;41.20;34.28;;;18.60;99.90;;;;;;5087523;28;20575;-79
2022/07/30 08:24:10;;;;;;;40.15;34.03;;;18.80;99.90;;;;;;5086624;28;20224;-79
2022/07/30 08:26:51;;;;;;;45.63;34.58;;;18.80;99.90;;;;;;5078069;28;20201;-79
2022/07/30 08:29:18;;;;;;;41.25;34.20;;;19.00;99.90;;;;;;5068933;28;20194;-79
2022/07/30 08:31:46;;;;;;;40.85;32.55;;;19.10;99.90;;;;;;5067851;28;20217;-79
2022/07/30 08:34:14;;;;;;;38.92;32.08;;;19.20;99.90;;;;;;5082243;28;20193;-79
2022/07/30 08:36:43;;;;;;;38.90;30.45;;;19.30;99.90;;;;;;5087667;28;20193;-78
2022/07/30 08:39:10;;;;;;;40.60;33.15;;;19.30;99.90;;;;;;5077742;28;20205;-78
2022/07/30 08:41:38;;;;;;;40.90;31.58;;;19.10;99.90;;;;;;5067372;28;20613;-78
2022/07/30 08:44:09;;;;;;;37.42;30.52;;;19.40;99.90;;;;;;5084241;28;20213;-79
2022/07/30 08:46:41;;;;;;;38.45;30.80;;;19.60;99.90;;;;;;5086595;28;20196;-79
2022/07/30 08:49:25;;;;;;;37.40;29.55;;;19.80;99.90;;;;;;5068247;28;20202;-79
2022/07/30 08:51:55;;;;;;;34.75;28.92;;;19.90;99.90;;;;;;5082854;28;20216;-79
2022/07/30 08:54:48;;;;;;;31.40;26.73;;;19.80;99.90;;;;;;5081777;28;20218;-79
2022/07/30 08:57:16;;;;;;;31.67;24.73;;;19.80;99.90;;;;;;5091009;28;20201;-79
2022/07/30 08:59:45;;;;;;;30.38;24.58;;;19.90;99.90;;;;;;5087499;28;20220;-78
2022/07/30 09:02:12;;;;;;;32.80;25.23;;;20.10;99.90;;;;;;5077115;28;20522;-79
2022/07/30 09:04:56;;;;;;;30.38;25.13;;;20.10;99.90;;;;;;5082937;28;20220;-79
2022/07/30 09:07:25;;;;;;;30.85;25.38;;;20.20;99.90;;;;;;5079757;28;20200;-79
2022/07/30 09:09:57;;;;;;;28.75;22.50;;;20.30;99.90;;;;;;5083917;28;20193;-79
2022/07/30 09:12:34;;;;;;;28.15;23.05;;;20.20;99.90;;;;;;5091420;28;20232;-78
2022/07/30 09:15:05;;;;;;;27.95;20.48;;;20.20;99.90;;;;;;5073319;28;20566;-81
2022/07/30 09:17:46;;;;;;;25.83;20.33;;;20.30;99.90;;;;;;5066305;28;20193;-81
2022/07/30 09:20:14;;;;;;;22.25;17.88;;;20.50;99.90;;;;;;5066478;28;20222;-81
2022/07/30 09:22:45;;;;;;;23.33;17.35;;;20.50;99.90;;;;;;5070569;28;20664;-79
2022/07/30 09:25:40;;;;;;;20.33;17.40;;;20.60;99.90;;;;;;5072492;28;20209;-79
2022/07/30 09:28:32;;;;;;;21.63;16.65;;;20.70;99.90;;;;;;5061957;28;20178;-78
2022/07/30 09:31:29;;;;;;;19.50;15.43;;;20.70;99.90;;;;;;5019351;28;20227;-79
2022/07/30 09:34:26;;;;;;;16.98;13.57;;;20.90;99.90;;;;;;5074603;28;20189;-80
2022/07/30 09:37:18;;;;;;;16.30;13.18;;;21.10;99.90;;;;;;5062955;28;20194;-80
2022/07/30 09:40:14;;;;;;;16.90;11.68;;;21.10;99.90;;;;;;5033895;28;20222;-80
2022/07/30 09:43:09;;;;;;;16.95;14.00;;;21.20;99.90;;;;;;5084430;28;20197;-82
2022/07/30 09:45:50;;;;;;;17.17;13.27;;;21.40;99.90;;;;;;5074171;28;20213;-80
2022/07/30 09:48:21;;;;;;;13.38;11.82;;;21.20;99.90;;;;;;5075844;28;20198;-80
2022/07/30 09:50:50;;;;;;;13.52;10.68;;;21.20;99.90;;;;;;5069805;28;20224;-81
2022/07/30 09:53:21;;;;;;;12.73;11.43;;;21.30;99.90;;;;;;5074348;28;20194;-81
2022/07/30 09:55:50;;;;;;;14.70;10.50;;;21.40;99.90;;;;;;5075175;28;20196;-81
2022/07/30 09:58:17;;;;;;;17.55;12.38;;;21.50;99.90;;;;;;5070749;28;20194;-81
2022/07/30 10:00:45;;;;;;;17.75;13.95;;;21.50;99.90;;;;;;5074245;28;20217;-81
2022/07/30 10:03:42;;;;;;;15.75;11.43;;;21.60;99.90;;;;;;5068104;28;20683;-81
2022/07/30 10:06:36;;;;;;;14.25;11.45;;;21.70;99.90;;;;;;5082191;28;20196;-80
2022/07/30 10:09:10;;;;;;;12.75;11.45;;;21.60;99.90;;;;;;5081914;28;20198;-79
2022/07/30 10:11:40;;;;;;;13.50;11.05;;;21.70;99.90;;;;;;5064952;28;20217;-80
2022/07/30 10:14:07;;;;;;;9.88;7.97;;;21.90;99.90;;;;;;5071991;28;20199;-80
2022/07/30 10:16:35;;;;;;;10.85;7.57;;;21.70;99.90;;;;;;5074531;28;20202;-80
2022/07/30 10:19:03;;;;;;;13.35;9.73;;;21.90;99.90;;;;;;5068881;28;20202;-80
2022/07/30 10:21:50;;;;;;;11.35;8.55;;;22.00;99.90;;;;;;5067810;28;20224;-80
2022/07/30 10:24:48;;;;;;;12.27;8.07;;;22.00;99.90;;;;;;5003168;28;20216;-80
2022/07/30 10:27:37;;;;;;;11.90;9.38;;;22.10;99.90;;;;;;5063493;28;20193;-80
2022/07/30 10:30:11;;;;;;;12.18;9.90;;;22.20;99.90;;;;;;5064289;28;20565;-81
2022/07/30 10:32:41;;;;;;;11.02;9.93;;;22.10;99.90;;;;;;5064247;28;20194;-81
2022/07/30 10:35:10;;;;;;;14.57;10.65;;;22.30;99.90;;;;;;5067922;28;20198;-81
2022/07/30 10:37:41;;;;;;;13.10;9.93;;;22.50;99.90;;;;;;5067501;28;20213;-81
2022/07/30 10:40:18;;;;;;;12.93;11.52;;;22.70;99.40;;;;;;5068324;28;20703;-81
2022/07/30 10:43:24;;;;;;;14.63;12.82;;;22.80;99.40;;;;;;5062942;28;20206;-81
2022/07/30 10:45:59;;;;;;;13.68;12.32;;;22.80;98.50;;;;;;5073846;28;20209;-81
2022/07/30 10:48:27;;;;;;;13.50;12.20;;;22.70;98.10;;;;;;5059007;28;20647;-81
2022/07/30 10:50:57;;;;;;;13.38;11.98;;;22.80;98.30;;;;;;5069025;28;20210;-81
2022/07/30 10:53:37;;;;;;;12.68;11.35;;;23.10;98.00;;;;;;5067296;28;20201;-81
2022/07/30 10:56:13;;;;;;;12.75;11.48;;;23.30;97.30;;;;;;5066934;28;20194;-81
2022/07/30 10:59:02;;;;;;;17.40;13.13;;;23.20;96.50;;;;;;5063266;28;20201;-81
2022/07/30 11:02:09;;;;;;;12.82;11.48;;;22.90;96.20;;;;;;5067032;28;20229;-80
2022/07/30 11:04:36;;;;;;;15.98;14.27;;;22.80;96.60;;;;;;5057704;28;20569;-81
2022/07/30 11:07:28;;;;;;;16.75;15.15;;;22.90;96.60;;;;;;5062412;28;20214;-81
2022/07/30 11:09:59;;;;;;;14.93;13.60;;;22.80;96.00;;;;;;5063247;28;20202;-81
2022/07/30 11:12:52;;;;;;;14.68;13.38;;;23.10;96.40;;;;;;5061992;28;20573;-81
2022/07/30 11:15:22;;;;;;;12.77;11.57;;;23.30;96.20;;;;;;5062670;28;20193;-81
2022/07/30 11:18:07;;;;;;;14.55;13.20;;;23.60;95.20;;;;;;5060461;28;20213;-81
2022/07/30 11:20:39;;;;;;;13.95;12.52;;;23.50;93.60;;;;;;5054828;28;20224;-79
2022/07/30 11:23:10;;;;;;;13.65;12.55;;;23.80;94.50;;;;;;5064367;28;20571;-78
2022/07/30 11:25:46;;;;;;;14.13;12.38;;;23.70;95.00;;;;;;5056332;28;20218;-78
2022/07/30 11:28:37;;;;;;;11.55;10.52;;;23.60;93.70;;;;;;5056640;28;20209;-78
2022/07/30 11:31:27;;;;;;;10.32;9.40;;;23.80;92.80;;;;;;5054919;28;20592;-78
2022/07/30 11:34:25;;;;;;;11.15;10.15;;;24.20;92.00;;;;;;5059076;28;20201;-77
2022/07/30 11:37:10;;;;;;;9.57;8.65;;;23.70;90.40;;;;;;5061122;28;20195;-78
2022/07/30 11:40:06;;;;;;;9.32;8.52;;;23.90;90.60;;;;;;5059464;28;20198;-77
2022/07/30 11:42:35;;;;;;;9.45;8.65;;;24.30;89.20;;;;;;5057146;28;20201;-78
2022/07/30 11:45:36;;;;;;;7.65;6.65;;;24.40;88.00;;;;;;5060504;28;20214;-78
2022/07/30 11:48:11;;;;;;;9.48;8.50;;;24.70;86.40;;;;;;5059255;28;20206;-78
2022/07/30 11:50:39;;;;;;;9.15;6.85;;;24.30;86.60;;;;;;5063028;28;20224;-78
2022/07/30 11:53:09;;;;;;;7.97;7.22;;;24.40;87.60;;;;;;5065949;28;20210;-78
2022/07/30 11:55:50;;;;;;;5.80;5.30;;;24.60;87.60;;;;;;5062145;28;20198;-78
2022/07/30 11:58:26;;;;;;;7.00;6.18;;;24.90;80.10;;;;;;5054626;28;20678;-78
2022/07/30 12:00:55;;;;;;;6.60;6.00;;;24.90;80.00;;;;;;5065392;28;20217;-77
2022/07/30 12:03:26;;;;;;;6.40;5.78;;;24.30;79.90;;;;;;5081547;28;20213;-78
2022/07/30 12:06:06;;;;;;;6.68;5.50;;;24.50;81.70;;;;;;5058158;28;20540;-78
2022/07/30 12:08:41;;;;;;;5.60;4.82;;;24.80;83.20;;;;;;5058834;28;20193;-78
2022/07/30 12:11:17;;;;;;;5.65;5.15;;;25.10;82.30;;;;;;5063450;28;20244;-78
2022/07/30 12:13:54;;;;;;;7.63;5.57;;;25.20;76.80;;;;;;5057992;28;20201;-78
2022/07/30 12:16:22;;;;;;;5.45;4.85;;;24.90;75.90;;;;;;5055026;28;20200;-78
2022/07/30 12:18:51;;;;;;;5.30;4.90;;;25.10;75.00;;;;;;5060681;28;20210;-78
2022/07/30 12:21:20;;;;;;;5.22;4.70;;;25.20;74.10;;;;;;5064632;28;20217;-78
2022/07/30 12:23:57;;;;;;;6.20;4.80;;;25.20;74.60;;;;;;5061986;28;20194;-79
2022/07/30 12:26:27;;;;;;;6.93;5.10;;;25.40;73.50;;;;;;5059172;28;20205;-79
2022/07/30 12:28:56;;;;;;;5.47;4.65;;;25.70;73.40;;;;;;5061855;28;20198;-79
2022/07/30 12:31:23;;;;;;;6.47;3.75;;;25.60;71.00;;;;;;5060957;28;20679;-79
2022/07/30 12:33:55;;;;;;;4.82;4.00;;;25.90;70.10;;;;;;5065795;28;20205;-79
2022/07/30 12:36:29;;;;;;;5.55;3.53;;;25.60;70.40;;;;;;5067399;28;20225;-79
2022/07/30 12:38:57;;;;;;;4.68;3.78;;;25.60;71.40;;;;;;5061119;28;20268;-79
2022/07/30 12:41:41;;;;;;;5.07;4.10;;;25.70;70.10;;;;;;5067426;28;20209;-78
2022/07/30 12:44:09;;;;;;;5.35;3.70;;;25.70;69.10;;;;;;5062630;28;20209;-78
2022/07/30 12:46:47;;;;;;;2.90;2.47;;;25.70;69.20;;;;;;5062039;28;20194;-78
2022/07/30 12:49:17;;;;;;;4.57;3.05;;;25.50;66.90;;;;;;5067167;28;20203;-78
2022/07/30 12:51:51;;;;;;;2.90;2.60;;;25.80;66.00;;;;;;5068360;28;20221;-78
2022/07/30 12:54:19;;;;;;;3.78;2.38;;;26.00;61.20;;;;;;5063652;28;20205;-78
2022/07/30 12:56:59;;;;;;;4.45;2.38;;;26.00;58.90;;;;;;5060882;28;20206;-78
2022/07/30 12:59:26;;;;;;;3.55;2.65;;;25.90;58.20;;;;;;5066787;28;20189;-78
2022/07/30 13:01:55;;;;;;;4.53;3.08;;;25.80;62.80;;;;;;5062060;28;20280;-78
2022/07/30 13:04:25;;;;;;;4.68;2.53;;;26.00;62.30;;;;;;5073020;28;20213;-78
2022/07/30 13:07:06;;;;;;;4.00;2.90;;;26.00;61.40;;;;;;5058035;28;20195;-78